Time;durP1;ratioP1;P1;durP2;ratioP2;P2;SDS_P1;SDS_P2;PMS_P1;PMS_P2;Temp;Humidity;BMP_temperature;BMP_pressure;BME280_temperature;BME280_humidity;BME280_pressure;Samples;Min_cycle;Max_cycle;Signal;HPM_P1;HPM_P2
2023/10/26 00:02:31;;;;;;;35.60;18.48;;;9.60;99.90;;;;;;2603733;54;20254;31
2023/10/26 00:05:06;;;;;;;31.35;17.90;;;9.80;99.90;;;;;;2603757;54;19935;31
2023/10/26 00:07:43;;;;;;;29.77;17.02;;;9.70;99.90;;;;;;2603548;54;20022;31
2023/10/26 00:10:19;;;;;;;30.92;17.35;;;9.70;99.90;;;;;;2603455;54;20105;31
2023/10/26 00:12:53;;;;;;;28.05;15.40;;;9.70;99.90;;;;;;2603648;54;20030;31
2023/10/26 00:15:28;;;;;;;34.15;17.70;;;9.60;99.90;;;;;;2622136;46;21115;31
2023/10/26 00:18:05;;;;;;;30.00;16.85;;;9.60;99.90;;;;;;2702286;39;20481;31
2023/10/26 00:20:40;;;;;;;31.90;15.93;;;9.70;99.90;;;;;;2603428;54;20913;31
2023/10/26 00:23:15;;;;;;;32.10;17.30;;;9.80;99.90;;;;;;2603606;54;20859;31
2023/10/26 00:25:51;;;;;;;31.33;15.73;;;9.70;99.90;;;;;;2702233;39;20606;31
2023/10/26 00:28:26;;;;;;;28.20;15.90;;;9.70;99.90;;;;;;2701946;39;20460;31
2023/10/26 00:31:01;;;;;;;29.17;14.50;;;9.70;99.90;;;;;;2603470;54;20022;31
2023/10/26 00:33:40;;;;;;;26.65;15.30;;;9.80;99.90;;;;;;2622519;46;20029;31
2023/10/26 00:36:17;;;;;;;25.83;14.60;;;9.80;99.90;;;;;;2603501;54;20038;31
2023/10/26 00:38:52;;;;;;;28.15;15.88;;;9.80;99.90;;;;;;2701936;39;20616;31
2023/10/26 00:41:27;;;;;;;29.30;14.83;;;9.90;99.90;;;;;;2701912;39;20512;31
2023/10/26 00:44:02;;;;;;;25.60;14.70;;;9.70;99.90;;;;;;2621955;46;20250;31
2023/10/26 00:46:38;;;;;;;29.15;15.55;;;9.90;99.90;;;;;;2603706;54;20062;31
2023/10/26 00:49:15;;;;;;;26.20;15.02;;;9.80;99.90;;;;;;2603541;54;20966;31
2023/10/26 00:51:52;;;;;;;30.40;15.38;;;9.80;99.90;;;;;;2603576;54;20781;31
2023/10/26 00:54:27;;;;;;;27.50;16.30;;;9.90;99.90;;;;;;2603250;54;20955;31
2023/10/26 00:57:02;;;;;;;30.92;16.65;;;9.80;99.90;;;;;;2603587;54;20030;31
2023/10/26 00:59:39;;;;;;;28.90;16.75;;;9.90;99.90;;;;;;2603346;54;20023;31
2023/10/26 01:02:13;;;;;;;30.23;17.08;;;9.90;99.90;;;;;;2621608;46;20896;31
2023/10/26 01:04:52;;;;;;;27.48;16.15;;;9.90;99.90;;;;;;2603333;54;20048;31
2023/10/26 01:07:26;;;;;;;26.70;15.75;;;9.90;99.90;;;;;;2622062;46;20870;31
2023/10/26 01:10:01;;;;;;;31.10;17.23;;;9.90;99.90;;;;;;2621913;46;20577;31
2023/10/26 01:12:37;;;;;;;30.65;16.10;;;9.90;99.90;;;;;;2603388;54;20881;31
2023/10/26 01:15:12;;;;;;;29.20;16.13;;;9.90;99.90;;;;;;2603440;54;20910;31
2023/10/26 01:17:47;;;;;;;33.85;17.13;;;9.90;99.90;;;;;;2603180;54;20026;31
2023/10/26 01:20:24;;;;;;;28.83;16.93;;;9.90;99.90;;;;;;2603457;54;20084;31
2023/10/26 01:23:03;;;;;;;28.70;16.08;;;9.90;99.90;;;;;;2603310;54;20305;31
2023/10/26 01:25:37;;;;;;;31.95;16.17;;;9.90;99.90;;;;;;2603454;54;20027;31
2023/10/26 01:28:12;;;;;;;32.55;16.30;;;9.90;99.90;;;;;;2603444;54;20061;31
2023/10/26 01:30:47;;;;;;;33.97;17.52;;;9.90;99.90;;;;;;2603351;54;20085;31
2023/10/26 01:33:21;;;;;;;32.13;17.55;;;10.00;99.90;;;;;;2603429;54;20567;31
2023/10/26 01:35:56;;;;;;;33.75;18.00;;;10.00;99.90;;;;;;2603064;54;20890;31
2023/10/26 01:38:34;;;;;;;;;;;10.00;99.90;;;;;;2603439;54;20811;31
2023/10/26 01:41:08;;;;;;;31.30;16.73;;;10.00;99.90;;;;;;2603466;54;20818;31
2023/10/26 01:43:43;;;;;;;32.75;17.75;;;10.00;99.90;;;;;;2603320;54;19941;31
2023/10/26 01:46:18;;;;;;;28.95;16.55;;;9.90;99.90;;;;;;2603266;54;20034;31
2023/10/26 01:48:53;;;;;;;33.55;18.50;;;10.00;99.90;;;;;;2603361;54;20026;31
2023/10/26 01:51:25;;;;;;;31.88;16.95;;;10.00;99.90;;;;;;2621767;46;20085;31
2023/10/26 01:54:03;;;;;;;31.27;16.73;;;10.00;99.90;;;;;;2603389;54;20807;31
2023/10/26 01:56:37;;;;;;;26.73;15.57;;;10.00;99.90;;;;;;2603319;54;20070;31
2023/10/26 01:59:12;;;;;;;26.70;16.20;;;10.00;99.90;;;;;;2603123;54;20859;31
2023/10/26 02:01:47;;;;;;;28.00;16.30;;;10.00;99.90;;;;;;2719957;39;20522;31
2023/10/26 02:04:20;;;;;;;29.20;16.45;;;10.00;99.90;;;;;;2603165;54;22360;31
2023/10/26 02:06:55;;;;;;;31.05;17.60;;;10.00;99.90;;;;;;2603025;54;20038;31
2023/10/26 02:09:33;;;;;;;29.80;16.90;;;10.00;99.90;;;;;;2603149;54;21437;31
2023/10/26 02:12:09;;;;;;;29.05;17.35;;;10.00;99.90;;;;;;2603224;54;20029;31
2023/10/26 02:14:44;;;;;;;;;;;10.00;99.90;;;;;;2603370;54;20792;31
2023/10/26 02:17:18;;;;;;;34.22;17.70;;;10.00;99.90;;;;;;2603131;54;20856;31
2023/10/26 02:19:53;;;;;;;34.60;18.20;;;10.00;99.90;;;;;;2603388;54;20085;31
2023/10/26 02:22:27;;;;;;;30.65;18.45;;;10.00;99.90;;;;;;2603234;54;20026;31
2023/10/26 02:25:06;;;;;;;32.80;18.43;;;10.00;99.90;;;;;;2602859;54;20030;31
2023/10/26 02:27:41;;;;;;;30.80;18.07;;;10.00;99.90;;;;;;2602957;54;20056;31
2023/10/26 02:30:16;;;;;;;32.53;17.37;;;10.10;99.90;;;;;;2603199;54;21337;31
2023/10/26 02:32:51;;;;;;;29.23;15.90;;;10.10;99.90;;;;;;2603083;54;20934;31
2023/10/26 02:35:26;;;;;;;25.63;16.00;;;10.10;99.90;;;;;;2621694;46;20158;31
2023/10/26 02:38:01;;;;;;;25.90;16.30;;;10.10;99.90;;;;;;2602976;54;20853;31
2023/10/26 02:40:41;;;;;;;30.70;17.38;;;10.10;99.90;;;;;;2621631;46;20941;31
2023/10/26 02:43:16;;;;;;;25.95;15.82;;;10.10;99.90;;;;;;2603209;54;20121;31
2023/10/26 02:45:50;;;;;;;33.60;17.52;;;10.10;99.90;;;;;;2622020;46;20026;31
2023/10/26 02:48:25;;;;;;;28.90;16.65;;;10.10;99.90;;;;;;2603077;54;20922;31
2023/10/26 02:51:00;;;;;;;25.40;16.33;;;10.10;99.90;;;;;;2621459;46;20790;31
2023/10/26 02:53:36;;;;;;;27.35;16.00;;;10.10;99.90;;;;;;2603024;54;20245;31
2023/10/26 02:56:13;;;;;;;29.97;16.03;;;10.10;99.90;;;;;;2602888;54;20042;31
2023/10/26 02:58:47;;;;;;;27.90;16.55;;;10.10;99.90;;;;;;2603046;54;20794;31
2023/10/26 03:01:22;;;;;;;34.35;17.15;;;10.10;99.90;;;;;;2602966;54;20926;31
2023/10/26 03:03:56;;;;;;;31.70;16.90;;;10.10;99.90;;;;;;2603079;54;20133;31
2023/10/26 03:06:31;;;;;;;27.25;16.08;;;10.20;99.90;;;;;;2621550;46;20092;31
2023/10/26 03:09:08;;;;;;;31.35;17.30;;;10.10;99.90;;;;;;2621328;46;20799;31
2023/10/26 03:11:46;;;;;;;29.70;16.20;;;10.20;99.90;;;;;;2602759;54;20029;31
2023/10/26 03:14:23;;;;;;;34.88;17.27;;;10.10;99.90;;;;;;2602820;54;20053;31
2023/10/26 03:17:00;;;;;;;31.60;17.37;;;10.10;99.90;;;;;;2602851;54;20026;31
2023/10/26 03:19:36;;;;;;;31.13;16.93;;;10.10;99.90;;;;;;2602586;54;20829;31
2023/10/26 03:22:10;;;;;;;28.53;16.70;;;10.10;99.90;;;;;;2602898;54;20859;31
2023/10/26 03:24:45;;;;;;;31.48;16.90;;;10.10;99.90;;;;;;2621618;47;20052;31
2023/10/26 03:27:23;;;;;;;30.83;17.55;;;10.10;99.90;;;;;;2602724;54;20100;31
2023/10/26 03:29:58;;;;;;;28.15;17.08;;;10.10;99.90;;;;;;2603140;54;20121;31
2023/10/26 03:32:32;;;;;;;30.58;16.80;;;10.10;99.90;;;;;;2621253;47;20922;31
2023/10/26 03:35:08;;;;;;;26.52;16.20;;;10.10;99.90;;;;;;2603031;54;20908;31
2023/10/26 03:37:43;;;;;;;28.15;17.45;;;10.10;99.90;;;;;;2621607;47;20805;31
2023/10/26 03:40:19;;;;;;;30.10;17.58;;;10.10;99.90;;;;;;2603045;54;20064;31
2023/10/26 03:42:56;;;;;;;30.67;17.35;;;10.10;99.90;;;;;;2602533;54;20910;31
2023/10/26 03:45:32;;;;;;;32.40;17.90;;;10.10;99.90;;;;;;2621240;47;20030;31
2023/10/26 03:48:09;;;;;;;32.60;18.02;;;10.10;99.90;;;;;;2621191;47;20026;31
2023/10/26 03:50:44;;;;;;;33.00;17.95;;;10.10;99.90;;;;;;2621690;47;20894;31
2023/10/26 03:53:20;;;;;;;35.75;20.10;;;10.10;99.90;;;;;;2602814;54;20880;31
2023/10/26 03:55:58;;;;;;;35.40;18.88;;;10.10;99.90;;;;;;2602758;54;20034;31
2023/10/26 03:58:35;;;;;;;30.13;19.07;;;10.10;99.90;;;;;;2602720;54;20027;31
2023/10/26 04:01:13;;;;;;;37.80;19.95;;;10.10;99.90;;;;;;2602754;54;21035;31
2023/10/26 04:03:47;;;;;;;32.92;19.55;;;10.10;99.90;;;;;;2701182;39;21433;31
2023/10/26 04:06:23;;;;;;;34.50;18.70;;;10.10;99.90;;;;;;2620952;47;20813;31
2023/10/26 04:08:58;;;;;;;40.17;19.97;;;10.10;99.90;;;;;;2602885;54;20592;31
2023/10/26 04:11:33;;;;;;;34.07;18.80;;;10.10;99.90;;;;;;2602718;54;20026;31
2023/10/26 04:14:11;;;;;;;31.67;19.02;;;10.10;99.90;;;;;;2620918;47;20862;31
2023/10/26 04:16:47;;;;;;;33.97;19.07;;;10.10;99.90;;;;;;2602531;54;20026;31
2023/10/26 04:19:22;;;;;;;34.70;19.27;;;10.00;99.90;;;;;;2621059;47;21207;31
2023/10/26 04:21:57;;;;;;;28.55;19.25;;;10.00;99.90;;;;;;2602655;54;20931;31
2023/10/26 04:24:32;;;;;;;34.55;19.88;;;10.00;99.90;;;;;;2602817;54;20029;31
2023/10/26 04:27:07;;;;;;;34.10;18.43;;;10.00;99.90;;;;;;2602682;54;20031;31
2023/10/26 04:29:45;;;;;;;33.35;18.95;;;10.00;99.90;;;;;;2603148;54;20813;31
2023/10/26 04:32:20;;;;;;;33.95;18.77;;;10.00;99.90;;;;;;2603572;54;20309;31
2023/10/26 04:34:55;;;;;;;32.38;18.77;;;10.00;99.90;;;;;;2603966;54;20214;31
2023/10/26 04:37:30;;;;;;;33.92;19.95;;;10.00;99.90;;;;;;2603628;54;20941;31
2023/10/26 04:40:05;;;;;;;36.60;19.65;;;10.00;99.90;;;;;;2603717;54;20920;31
2023/10/26 04:42:40;;;;;;;30.88;18.95;;;10.00;99.90;;;;;;2603676;54;20085;31
2023/10/26 04:45:19;;;;;;;39.10;20.05;;;10.00;99.90;;;;;;2603723;54;20845;31
2023/10/26 04:47:57;;;;;;;30.40;18.03;;;9.90;99.90;;;;;;2603615;54;20033;31
2023/10/26 04:50:32;;;;;;;32.50;18.23;;;9.90;99.90;;;;;;2603502;54;20038;31
2023/10/26 04:53:08;;;;;;;34.10;19.40;;;9.90;99.90;;;;;;2603635;54;20027;31
2023/10/26 04:55:42;;;;;;;31.17;17.03;;;9.90;99.90;;;;;;2603401;54;20789;31
2023/10/26 04:58:17;;;;;;;30.85;18.65;;;9.90;99.90;;;;;;2603475;54;20115;31
2023/10/26 05:00:59;;;;;;;33.00;18.15;;;9.90;99.90;;;;;;2621725;46;20893;31
2023/10/26 05:03:37;;;;;;;30.33;17.40;;;9.90;99.90;;;;;;2602644;54;20249;31
2023/10/26 05:06:12;;;;;;;29.42;15.85;;;9.90;99.90;;;;;;2603400;54;20112;31
2023/10/26 05:08:48;;;;;;;29.00;17.33;;;9.90;99.90;;;;;;2701875;39;20564;31
2023/10/26 05:11:24;;;;;;;28.92;16.73;;;10.00;99.90;;;;;;2603523;54;20026;31
2023/10/26 05:14:06;;;;;;;33.23;18.83;;;9.90;99.90;;;;;;2603718;54;21349;31
2023/10/26 05:16:44;;;;;;;27.17;16.02;;;10.00;99.90;;;;;;2603383;54;20920;31
2023/10/26 05:19:21;;;;;;;27.27;16.63;;;10.00;99.90;;;;;;2603460;54;20871;31
2023/10/26 05:21:56;;;;;;;30.40;16.25;;;10.00;99.90;;;;;;2603620;54;20914;31
2023/10/26 05:24:36;;;;;;;30.23;16.88;;;10.00;99.90;;;;;;2621860;46;20026;31
2023/10/26 05:27:11;;;;;;;30.23;17.13;;;10.00;99.90;;;;;;2603565;54;20046;31
2023/10/26 05:29:47;;;;;;;27.15;15.55;;;10.00;99.90;;;;;;2603292;54;20030;31
2023/10/26 05:32:24;;;;;;;31.97;16.47;;;10.00;99.90;;;;;;2603592;54;20852;31
2023/10/26 05:34:58;;;;;;;28.70;16.45;;;10.10;99.90;;;;;;2603499;54;20756;31
2023/10/26 05:37:34;;;;;;;27.50;15.48;;;10.10;99.90;;;;;;2621925;46;20805;31
2023/10/26 05:40:10;;;;;;;28.63;17.10;;;10.10;99.90;;;;;;2621597;46;20029;31
2023/10/26 05:42:45;;;;;;;26.73;15.10;;;10.10;99.90;;;;;;2603175;54;20046;31
2023/10/26 05:45:20;;;;;;;21.73;13.80;;;10.10;99.90;;;;;;2603257;54;20939;31
2023/10/26 05:47:58;;;;;;;23.95;14.75;;;10.10;99.90;;;;;;2603651;54;20588;31
2023/10/26 05:50:32;;;;;;;22.98;13.90;;;10.10;99.90;;;;;;2621646;46;19942;31
2023/10/26 05:53:08;;;;;;;22.60;13.38;;;10.20;99.90;;;;;;2603575;54;20033;31
2023/10/26 05:55:42;;;;;;;21.83;13.15;;;10.20;99.90;;;;;;2621314;46;20105;31
2023/10/26 05:58:17;;;;;;;19.70;12.68;;;10.20;99.90;;;;;;2603600;54;20042;31
2023/10/26 06:00:53;;;;;;;23.87;13.73;;;10.20;99.90;;;;;;2621790;46;20085;31
2023/10/26 06:03:30;;;;;;;20.75;12.40;;;10.20;99.90;;;;;;2621379;46;21094;31
2023/10/26 06:06:07;;;;;;;23.58;12.80;;;10.30;99.90;;;;;;2603298;54;20034;31
2023/10/26 06:08:41;;;;;;;21.70;12.85;;;10.30;99.90;;;;;;2602471;54;20030;31
2023/10/26 06:11:17;;;;;;;22.35;13.10;;;10.40;99.90;;;;;;2720228;39;20511;31
2023/10/26 06:13:53;;;;;;;20.50;12.57;;;10.40;99.90;;;;;;2603278;54;20034;31
2023/10/26 06:16:29;;;;;;;14.63;9.65;;;10.40;99.90;;;;;;2603331;54;20058;31
2023/10/26 06:19:08;;;;;;;20.58;10.88;;;10.40;99.90;;;;;;2621486;46;20030;31
2023/10/26 06:21:47;;;;;;;18.13;11.07;;;10.50;99.90;;;;;;2603124;54;20073;31
2023/10/26 06:24:23;;;;;;;21.40;13.45;;;10.50;99.90;;;;;;2603352;54;20034;31
2023/10/26 06:26:56;;;;;;;;;;;10.60;99.90;;;;;;2720969;39;21014;31
2023/10/26 06:29:35;;;;;;;19.42;12.50;;;10.60;99.90;;;;;;2773047;31;20538;31
2023/10/26 06:32:12;;;;;;;18.52;12.40;;;10.50;99.90;;;;;;2701676;39;20567;31
2023/10/26 06:34:50;;;;;;;22.30;11.40;;;10.60;99.90;;;;;;2621878;46;20004;31
2023/10/26 06:37:28;;;;;;;16.83;10.07;;;10.60;99.90;;;;;;2603234;54;20061;31
2023/10/26 06:40:07;;;;;;;15.17;8.47;;;10.70;99.90;;;;;;2603124;54;20826;31
2023/10/26 06:42:43;;;;;;;17.30;8.65;;;10.70;99.90;;;;;;2603331;54;20907;31
2023/10/26 06:45:18;;;;;;;12.48;7.75;;;10.70;99.90;;;;;;2621711;46;20789;31
2023/10/26 06:47:54;;;;;;;14.70;8.00;;;10.80;99.90;;;;;;2603066;54;20081;31
2023/10/26 06:50:32;;;;;;;;;;;10.90;99.90;;;;;;2603315;54;21185;31
2023/10/26 06:53:08;;;;;;;12.32;5.90;;;10.90;99.90;;;;;;2603229;54;20757;31
2023/10/26 06:55:44;;;;;;;9.98;4.97;;;11.00;99.90;;;;;;2603133;54;20104;31
2023/10/26 06:58:20;;;;;;;6.57;4.75;;;11.00;99.90;;;;;;2621254;46;20913;31
2023/10/26 07:00:57;;;;;;;6.72;4.22;;;11.00;99.90;;;;;;2603320;54;20886;31
2023/10/26 07:03:33;;;;;;;7.50;4.35;;;11.10;99.90;;;;;;2603060;54;20101;31
2023/10/26 07:06:13;;;;;;;6.30;3.20;;;11.20;99.90;;;;;;2603309;54;20030;31
2023/10/26 07:08:49;;;;;;;4.63;2.95;;;11.20;99.90;;;;;;2603002;54;20037;31
2023/10/26 07:11:30;;;;;;;4.63;2.97;;;11.30;99.90;;;;;;2603317;54;20029;31
2023/10/26 07:14:06;;;;;;;5.78;2.88;;;11.30;99.90;;;;;;2602894;54;20856;31
2023/10/26 07:16:42;;;;;;;4.85;3.00;;;11.30;99.90;;;;;;2603135;54;20776;31
2023/10/26 07:19:17;;;;;;;;;;;11.40;99.90;;;;;;2603476;54;20037;31
2023/10/26 07:21:54;;;;;;;2.97;1.98;;;11.40;99.90;;;;;;2602857;54;19934;31
2023/10/26 07:24:30;;;;;;;5.70;2.67;;;11.40;99.90;;;;;;2603210;54;20029;31
2023/10/26 07:27:07;;;;;;;4.40;2.87;;;11.50;99.90;;;;;;2621373;47;20058;31
2023/10/26 07:29:44;;;;;;;5.85;3.10;;;11.50;99.90;;;;;;2603096;54;20831;31
2023/10/26 07:32:19;;;;;;;4.80;3.00;;;11.50;99.90;;;;;;2621339;47;20035;31
2023/10/26 07:34:58;;;;;;;5.68;2.65;;;11.50;99.90;;;;;;2602415;54;20022;31
2023/10/26 07:37:37;;;;;;;4.45;2.92;;;11.60;99.90;;;;;;2603022;54;20901;31
2023/10/26 07:40:15;;;;;;;5.38;2.85;;;11.70;99.90;;;;;;2602866;54;20030;31
2023/10/26 07:43:05;;;;;;;6.30;3.47;;;11.70;99.90;;;;;;2603120;54;20030;31
2023/10/26 07:45:40;;;;;;;5.38;2.88;;;11.80;99.90;;;;;;2602954;54;20035;31
2023/10/26 07:48:16;;;;;;;3.28;2.60;;;11.80;99.90;;;;;;2620925;47;20811;31
2023/10/26 07:50:53;;;;;;;7.32;2.95;;;11.90;99.90;;;;;;2603158;54;20034;31
2023/10/26 07:53:33;;;;;;;3.17;2.10;;;12.00;99.90;;;;;;2621576;47;20081;31
2023/10/26 07:56:10;;;;;;;4.75;2.40;;;12.10;99.90;;;;;;2602824;54;20031;31
2023/10/26 07:58:45;;;;;;;4.22;2.00;;;12.20;99.90;;;;;;2602190;54;20065;31
2023/10/26 08:01:22;;;;;;;7.25;2.33;;;12.30;99.90;;;;;;2621418;47;20026;31
2023/10/26 08:03:57;;;;;;;4.25;2.40;;;12.40;99.90;;;;;;2603056;54;20827;31
2023/10/26 08:06:33;;;;;;;5.18;2.50;;;12.50;99.90;;;;;;2603440;54;20913;31
2023/10/26 08:09:10;;;;;;;3.22;1.80;;;12.50;99.90;;;;;;2603739;54;20931;31
2023/10/26 08:11:45;;;;;;;4.25;1.70;;;12.70;99.90;;;;;;2603759;54;20831;31
2023/10/26 08:14:22;;;;;;;4.15;1.67;;;12.70;99.90;;;;;;2622046;46;20027;31
2023/10/26 08:17:18;;;;;;;2.70;0.98;;;12.80;99.90;;;;;;2603669;54;20097;31
2023/10/26 08:19:55;;;;;;;6.32;0.90;;;12.90;99.90;;;;;;2603751;54;20037;31
2023/10/26 08:22:35;;;;;;;2.28;0.57;;;12.90;99.90;;;;;;2621667;46;20030;31
2023/10/26 08:25:09;;;;;;;0.90;0.50;;;12.90;99.90;;;;;;2603762;54;20042;31
2023/10/26 08:27:48;;;;;;;1.33;0.57;;;12.90;99.90;;;;;;2622081;46;20023;31
2023/10/26 08:30:25;;;;;;;2.55;0.93;;;12.90;99.90;;;;;;2603781;54;20026;31
2023/10/26 08:33:04;;;;;;;0.90;0.40;;;13.00;99.90;;;;;;2765200;31;20022;31
2023/10/26 08:35:39;;;;;;;1.15;0.20;;;13.00;99.90;;;;;;2622429;46;20183;31
2023/10/26 08:38:15;;;;;;;0.32;0.15;;;13.00;99.90;;;;;;2603540;54;20929;31
2023/10/26 08:40:53;;;;;;;;;;;13.00;99.90;;;;;;2603885;54;20030;31
2023/10/26 08:43:32;;;;;;;2.85;0.20;;;13.00;99.90;;;;;;2603440;54;19938;31
2023/10/26 08:46:07;;;;;;;0.45;0.20;;;13.00;99.90;;;;;;2603645;54;20877;31
2023/10/26 08:48:41;;;;;;;0.90;0.30;;;13.00;99.90;;;;;;2603663;54;20974;31
2023/10/26 08:51:19;;;;;;;0.20;0.10;;;13.00;99.90;;;;;;2603647;54;20061;31
2023/10/26 08:53:58;;;;;;;1.17;0.10;;;12.90;99.90;;;;;;2622122;46;20085;31
2023/10/26 08:56:35;;;;;;;0.38;0.10;;;12.90;99.90;;;;;;2608322;46;20107;31
2023/10/26 08:59:13;;;;;;;;;;;12.90;99.90;;;;;;2621988;46;20030;31
2023/10/26 09:01:58;;;;;;;1.70;0.30;;;12.90;99.90;;;;;;2603589;54;19934;31
2023/10/26 09:05:08;;;;;;;0.60;0.20;;;12.90;99.90;;;;;;2603586;54;20042;31
2023/10/26 09:15:06;;;;;;;4.68;0.50;;;12.70;99.90;;;;;;2603392;54;20918;31
2023/10/26 09:18:00;;;;;;;0.20;0.10;;;12.70;99.90;;;;;;2621814;47;20026;31
2023/10/26 09:23:48;;;;;;;0.60;0.30;;;12.60;99.90;;;;;;2603515;54;20834;31
2023/10/26 09:26:43;;;;;;;0.30;0.20;;;12.60;99.90;;;;;;2603479;54;20022;31
2023/10/26 09:32:13;;;;;;;0.70;0.30;;;12.60;99.90;;;;;;2603006;54;20926;31
2023/10/26 09:35:24;;;;;;;0.80;0.20;;;12.60;99.90;;;;;;2603642;54;20018;31
2023/10/26 09:38:05;;;;;;;2.20;0.38;;;12.60;99.90;;;;;;2603216;54;20034;31
2023/10/26 09:40:43;;;;;;;0.77;0.30;;;12.80;99.90;;;;;;2603794;54;20027;31
2023/10/26 09:43:23;;;;;;;0.30;0.20;;;12.70;99.90;;;;;;2603613;54;20143;31
2023/10/26 09:46:04;;;;;;;0.20;0.10;;;12.80;99.90;;;;;;2603362;54;20030;31
2023/10/26 09:48:47;;;;;;;2.55;0.20;;;13.00;99.90;;;;;;2603381;54;20057;31
2023/10/26 09:51:32;;;;;;;0.52;0.15;;;13.10;99.90;;;;;;2603328;54;20884;31
2023/10/26 09:54:09;;;;;;;0.25;0.13;;;13.20;99.90;;;;;;2603266;54;20050;31
2023/10/26 09:56:49;;;;;;;1.60;0.20;;;13.30;99.90;;;;;;2603370;54;20030;31
2023/10/26 09:59:28;;;;;;;0.65;0.20;;;13.40;99.90;;;;;;2603424;54;20038;31
2023/10/26 10:02:16;;;;;;;0.30;0.20;;;13.50;99.90;;;;;;2603334;54;19934;31
2023/10/26 10:04:55;;;;;;;0.93;0.40;;;13.50;99.90;;;;;;2603483;54;19940;31
2023/10/26 10:07:29;;;;;;;2.65;0.40;;;13.60;99.90;;;;;;2701793;39;20365;31
2023/10/26 10:10:11;;;;;;;1.65;0.40;;;13.60;99.90;;;;;;2603493;54;20485;31
2023/10/26 10:12:48;;;;;;;0.75;0.28;;;13.70;99.90;;;;;;2603532;54;20161;31
2023/10/26 10:15:35;;;;;;;1.70;0.40;;;13.80;99.90;;;;;;2603388;54;20937;31
2023/10/26 10:18:21;;;;;;;1.65;0.35;;;13.90;99.90;;;;;;2603338;54;20560;31
2023/10/26 10:20:57;;;;;;;2.03;0.40;;;13.90;99.90;;;;;;2621603;46;20909;31
2023/10/26 10:23:33;;;;;;;1.25;0.40;;;14.00;99.90;;;;;;2603225;54;20908;31
2023/10/26 10:26:12;;;;;;;0.85;0.38;;;14.10;99.90;;;;;;2603398;54;20022;31
2023/10/26 10:29:00;;;;;;;1.30;0.30;;;14.10;99.90;;;;;;2621801;46;20026;31
2023/10/26 10:31:43;;;;;;;1.52;0.40;;;14.10;99.90;;;;;;2603124;54;20092;31
2023/10/26 10:34:20;;;;;;;1.00;0.40;;;14.20;99.90;;;;;;2603494;54;20907;31
2023/10/26 10:37:17;;;;;;;0.52;0.32;;;14.20;99.90;;;;;;2603005;54;20592;31
2023/10/26 10:42:33;;;;;;;1.38;0.50;;;14.20;99.90;;;;;;2603290;54;20042;31
2023/10/26 10:45:16;;;;;;;2.30;0.55;;;14.30;99.90;;;;;;2621999;46;20862;31
2023/10/26 10:47:52;;;;;;;1.00;0.40;;;14.30;99.90;;;;;;2603382;54;20091;31
2023/10/26 10:50:32;;;;;;;1.70;0.60;;;14.30;99.90;;;;;;2621685;46;20618;31
2023/10/26 10:53:10;;;;;;;2.05;0.60;;;14.30;99.90;;;;;;2621611;46;20030;31
2023/10/26 10:55:45;;;;;;;2.00;0.53;;;14.30;99.90;;;;;;2621160;46;20030;31
2023/10/26 10:58:24;;;;;;;1.25;0.50;;;14.40;99.90;;;;;;2621617;46;20053;31
2023/10/26 11:01:00;;;;;;;2.40;0.77;;;14.40;99.90;;;;;;2603104;54;20829;31
2023/10/26 11:03:35;;;;;;;1.07;0.37;;;14.40;99.90;;;;;;2603243;54;19993;31
2023/10/26 11:06:16;;;;;;;4.15;0.70;;;14.40;99.90;;;;;;2603074;54;20801;31
2023/10/26 11:11:30;;;;;;;1.25;0.73;;;14.30;99.90;;;;;;2603005;54;20046;31
2023/10/26 11:14:17;;;;;;;1.90;0.60;;;14.30;99.90;;;;;;2603122;54;20714;31
2023/10/26 11:16:52;;;;;;;1.85;0.75;;;14.30;99.90;;;;;;2602984;54;19935;31
2023/10/26 11:19:29;;;;;;;1.83;0.77;;;14.20;99.90;;;;;;2603253;54;20043;31
2023/10/26 11:22:05;;;;;;;5.28;0.75;;;14.20;99.90;;;;;;2602962;54;20781;31
2023/10/26 11:24:41;;;;;;;2.70;0.50;;;14.20;99.90;;;;;;2603135;54;20830;31
2023/10/26 11:27:18;;;;;;;0.90;0.50;;;14.10;99.90;;;;;;2791328;31;21589;31
2023/10/26 11:30:09;;;;;;;1.25;0.52;;;14.10;99.90;;;;;;2602866;54;21053;31
2023/10/26 11:32:45;;;;;;;1.27;0.30;;;14.00;99.90;;;;;;2603020;54;20109;31
2023/10/26 11:35:21;;;;;;;1.83;0.50;;;13.90;99.90;;;;;;2603250;54;20801;31
2023/10/26 11:37:57;;;;;;;0.40;0.10;;;13.80;99.90;;;;;;2602971;54;20033;31
2023/10/26 11:40:32;;;;;;;1.20;0.50;;;13.80;99.90;;;;;;2603524;54;19934;31
2023/10/26 11:43:09;;;;;;;0.52;0.30;;;13.80;99.90;;;;;;2603758;54;20950;31
2023/10/26 11:46:02;;;;;;;0.73;0.20;;;13.70;99.90;;;;;;2603860;54;20585;31
2023/10/26 11:48:41;;;;;;;1.60;0.40;;;13.70;99.90;;;;;;2603374;54;20026;31
2023/10/26 11:51:19;;;;;;;1.65;0.50;;;13.70;99.90;;;;;;2603768;54;20242;31
2023/10/26 11:53:54;;;;;;;3.08;0.30;;;13.70;99.90;;;;;;2720619;39;22367;31
2023/10/26 11:56:31;;;;;;;2.15;0.30;;;13.70;99.90;;;;;;2604011;54;20034;31
2023/10/26 11:59:07;;;;;;;1.17;0.50;;;13.70;99.90;;;;;;2621726;46;20053;31
2023/10/26 12:01:46;;;;;;;0.60;0.20;;;13.70;99.90;;;;;;2621996;46;20787;31
2023/10/26 12:04:21;;;;;;;0.40;0.20;;;13.70;99.90;;;;;;2603498;54;20876;31
2023/10/26 12:06:57;;;;;;;1.80;0.60;;;13.80;99.90;;;;;;2701514;39;20744;31
2023/10/26 12:09:33;;;;;;;1.00;0.40;;;13.80;99.90;;;;;;2603778;54;20026;31
2023/10/26 12:12:10;;;;;;;1.25;0.30;;;13.80;99.90;;;;;;2603557;54;20085;31
2023/10/26 12:14:49;;;;;;;0.85;0.40;;;13.80;99.90;;;;;;2603833;54;20750;31
2023/10/26 12:17:30;;;;;;;1.60;0.60;;;13.80;99.90;;;;;;2622263;46;20113;31
2023/10/26 12:20:05;;;;;;;1.80;0.40;;;13.80;99.90;;;;;;2603699;54;21429;31
2023/10/26 12:22:41;;;;;;;1.50;0.40;;;13.80;99.90;;;;;;2603668;54;20089;31
2023/10/26 12:25:17;;;;;;;1.00;0.40;;;13.80;99.90;;;;;;2603859;54;21095;31
2023/10/26 12:28:00;;;;;;;0.45;0.20;;;13.80;99.90;;;;;;2603354;54;20089;31
2023/10/26 12:30:55;;;;;;;0.95;0.38;;;13.80;99.90;;;;;;2603425;54;19941;31
2023/10/26 12:33:35;;;;;;;1.15;0.45;;;13.80;99.90;;;;;;2622065;46;20591;31
2023/10/26 12:36:16;;;;;;;0.95;0.30;;;13.80;99.90;;;;;;2603541;54;20851;31
2023/10/26 12:38:51;;;;;;;1.35;0.50;;;13.80;99.90;;;;;;2615473;46;20951;31
2023/10/26 12:41:27;;;;;;;3.00;0.70;;;13.80;99.90;;;;;;2603061;54;20107;31
2023/10/26 12:44:03;;;;;;;1.00;0.40;;;13.80;99.90;;;;;;2621830;46;20905;31
2023/10/26 12:46:56;;;;;;;1.00;0.35;;;13.80;99.90;;;;;;2622276;46;20022;31
2023/10/26 12:49:37;;;;;;;0.97;0.47;;;13.80;99.90;;;;;;2603844;54;20023;31
2023/10/26 12:52:19;;;;;;;0.80;0.50;;;13.90;99.90;;;;;;2603650;54;20081;31
2023/10/26 12:54:54;;;;;;;2.05;0.52;;;13.90;99.90;;;;;;2603634;54;20848;31
2023/10/26 12:57:31;;;;;;;0.40;0.20;;;13.90;99.90;;;;;;2603617;54;20034;31
2023/10/26 13:00:11;;;;;;;0.47;0.20;;;14.00;99.90;;;;;;2603517;54;20797;31
2023/10/26 13:02:47;;;;;;;0.60;0.30;;;14.00;99.90;;;;;;2622108;46;20085;31
2023/10/26 13:05:27;;;;;;;0.93;0.33;;;14.10;99.90;;;;;;2603512;54;20626;31
2023/10/26 13:08:18;;;;;;;1.83;0.40;;;14.10;99.90;;;;;;2621794;46;20995;31
2023/10/26 13:10:54;;;;;;;0.52;0.30;;;14.10;99.90;;;;;;2603453;54;21020;31
2023/10/26 13:13:30;;;;;;;;;;;14.10;99.90;;;;;;2622235;46;20564;31
2023/10/26 13:16:09;;;;;;;0.80;0.40;;;14.20;99.90;;;;;;2603757;54;19934;31
2023/10/26 13:18:44;;;;;;;1.98;0.47;;;14.10;99.90;;;;;;2603634;54;20575;31
2023/10/26 13:21:28;;;;;;;0.90;0.45;;;14.10;99.90;;;;;;2603443;54;20585;31
2023/10/26 13:24:04;;;;;;;1.10;0.60;;;14.10;99.90;;;;;;2622181;46;20027;31
2023/10/26 13:26:42;;;;;;;1.02;0.50;;;14.10;99.90;;;;;;2701184;39;20545;31
2023/10/26 13:29:17;;;;;;;0.68;0.40;;;14.00;99.90;;;;;;2603506;54;20046;31
2023/10/26 13:31:54;;;;;;;0.80;0.40;;;14.00;99.90;;;;;;2603361;54;20831;31
2023/10/26 13:34:33;;;;;;;0.70;0.30;;;13.80;99.90;;;;;;2603689;54;20876;31
2023/10/26 13:37:14;;;;;;;0.93;0.40;;;13.70;99.90;;;;;;2603395;54;20026;31
2023/10/26 13:39:50;;;;;;;0.70;0.40;;;13.70;99.90;;;;;;2603577;54;20910;31
2023/10/26 13:42:26;;;;;;;0.77;0.40;;;13.60;99.90;;;;;;2603460;54;20026;31
2023/10/26 13:45:05;;;;;;;0.30;0.20;;;13.50;99.90;;;;;;2603394;54;20928;31
2023/10/26 13:47:46;;;;;;;0.95;0.50;;;13.50;99.90;;;;;;2603353;54;20032;31
2023/10/26 13:50:27;;;;;;;0.57;0.25;;;13.40;99.90;;;;;;2603403;54;20027;31
2023/10/26 13:53:07;;;;;;;0.80;0.40;;;13.30;99.90;;;;;;2621793;46;20030;31
2023/10/26 13:55:44;;;;;;;2.50;0.40;;;13.30;99.90;;;;;;2603376;54;20026;31
2023/10/26 13:58:21;;;;;;;1.83;0.80;;;13.20;99.90;;;;;;2603085;54;21513;31
2023/10/26 14:00:58;;;;;;;3.17;0.50;;;13.20;99.90;;;;;;2603207;54;20585;31
2023/10/26 14:03:38;;;;;;;1.73;0.70;;;13.30;99.90;;;;;;2621879;47;20046;31